默认 日期 大小 文件数 浏览量 最新下载 xml
kino磁力链接相关资源由用户搜索指令自动获取,结果来源于网络,本站不存储任何资料,亦不承担任何责任,请于24小时内删除,搜索到1898个磁力,用时3ms。
    {"01.jpg": 270674, "02.jpg": 283975, "03.jpg": 285666, "04.jpg": 249866, "05.jpg": 275928, "06.jpg": 284051, "07.jpg": 270284, "08.jpg": 281513, "09.jpg": 260905, "10.jpg": 174004, "11.jpg": 267140, "12.jpg": 265424, "13.jpg": 292318, "14.jpg": 288022, "15 ...
创建时间: 2018-12-07 11:57:49 大小:6.98 MB 文件数量:26 热度:22 最近下载:2025-02-07 08:52:01
    {"Simpsons 01": {"01_06 - Moaning Lisa.mp4": 59913129, "01_03 - Homers Odyssey.mp4": 59928460, "01_02 - Bart The Genius.mp4": 59741170, "01_05 - Bart the General.mp4": 58608089, "01_10 - Homers Night Out.mp4": 59743164, "01_08 - The Telltale Head.mp4": ...
创建时间: 2018-12-07 18:51:29 大小:6.81 GB 文件数量:123 热度:19 最近下载:2025-07-07 12:21:01
    {"CD1": {"[aR] 100 Love Songs - 16 - Jeena Nahin - Tezaab.mp3": 5494438, "[aR] 100 Love Songs - 03 - Awaaz Di Hai - Aitbaar.mp3": 6139555, "[aR] 100 Love Songs - 07 - Dekh Ke Tumko - Gawaahi.mp3": 8048586, "[aR] 100 Love Songs - 12 - Kisi Nazar Ko - ...
创建时间: 2018-12-07 19:57:16 大小:645.9 MB 文件数量:100 热度:14 最近下载:2023-04-22 21:40:24
    ... -03-14 PM.jpg": 662960, "Kino - Groupa Kroovy (Blood Type).cue ... ": 1269, "Kino - Groupa Kroovy (Blood Type).flac ... ": 1904590907, "Kino - 1989 Groupa Kroovy (Blood Type ...
创建时间: 2018-12-07 22:08:14 大小:1.79 GB 文件数量:8 热度:16 最近下载:2023-04-23 00:40:23
    {"VIDEO_TS": {"VIDEO_TS.BUP": 12288, "VIDEO_TS.IFO": 12288, "VIDEO_TS.VOB": 7313408, "VTS_01_0.BUP": 169984, "VTS_01_0.IFO": 169984, "VTS_01_0.VOB": 14336, "VTS_01_1.VOB": 1048629248, "VTS_01_2.VOB": 1048858624, "VTS_01_3.VOB": 1048395776, "VTS_01_4.VOB": ...
创建时间: 2018-12-07 22:57:44 大小:7.89 GB 文件数量:18 热度:16 最近下载:2023-04-23 01:20:07
    {"01.jpg": 337034, "02.jpg": 10935, "03.jpg": 315203, "04.jpg": 353170, "05.jpg": 403024, "06.jpg": 373395, "07.jpg": 307428, "08.jpg": 317017, "09.jpg": 328058, "10.jpg": 301956, "11.jpg": 304690, "12.jpg": 397310, "13.jpg": 316998, "14.jpg": 400554, "15. ...
创建时间: 2018-12-07 23:51:13 大小:7.79 MB 文件数量:23 热度:18 最近下载:2024-12-23 01:46:02
    ... .mp3": 4376291, "11-kino-the_silent_fighter_pilot.mp3": 11566242, "09-kino-grey_shapes_on_concrete_fields.mp3": 11245464 ... ).mp3": 2431750, "05-kino-i_wont_break_so_easily_any_more.mp3": 13213007, "12-kino-temple_tudor_(piano_mix_bonus_track).mp3 ...
创建时间: 2018-12-08 04:37:01 大小:162.47 MB 文件数量:15 热度:15 最近下载:2022-04-23 06:28:57
    {"Cover.jpg": 107665, "イメージ": {"GNCA-0518_001.jpg": 414227, "GNCA-0519_001.jpg": 426254}, "01 here and there.flac": 37597198, "02 砂糖玉の月.flac": 32690118, "03 here and there [Instrumental].flac": 35722918, "04 砂糖玉の月 [Instrumental].flac": 30551144}
创建时间: 2018-12-08 15:42:16 大小:131.14 MB 文件数量:7 热度:35 最近下载:2025-08-02 17:19:08
    ... 91837, "audiochecker.log": 3159, "03 Kino Oko - Pasyonata (03).ape": 44951172 ... , "09 Kino Oko - Well done (09).ape ... (06).ape": 39566344, "04 Kino Oko - Hippie bones (04).ape ... ": 54040184, "02 Kino Oko - Metalic Mista (02).ape ...
创建时间: 2018-12-08 21:43:46 大小:500.16 MB 文件数量:14 热度:17 最近下载:2025-05-15 11:57:01
    {"Kino Lika DVD Rip(2008).avi": 732862168}
创建时间: 2018-12-09 03:43:37 大小:698.91 MB 文件数量:1 热度:16 最近下载:2025-09-18 21:33:14
    ... 1.jpg": 426769, "Kant Kino - Father Worked In Industry.accurip ... ": 1391}, "Kant Kino - Father Worked In Industry.cue ... Industry.log": 7968, "Kant Kino - Father Worked In Industry. ... On.flac": 499763798}, "Kant Kino - Father Worked In Industry.txt ...
创建时间: 2018-12-09 11:00:43 大小:944.43 MB 文件数量:34 热度:16 最近下载:2025-08-08 09:39:03
    {"INFO.txt": 15067, "Uwaga ważne,ZOBACZ NAS!!.jpg": 720486, "Torrent downloaded from FileTracker.pl.txt": 49, "! Chcesz mieć TO szybciej - zapraszamy-KLIK.url": 111, "xMy Little Pony. Film [2017] PLDUB.MD.WEB-DL.XViD-MX.avi": 733696000}
创建时间: 2018-12-10 13:03:45 大小:700.41 MB 文件数量:5 热度:9 最近下载:2025-04-02 14:42:01
    {"001.jpg": 374544, "002.jpg": 253322, "003.jpg": 84698, "004.jpg": 271694, "005.jpg": 640042, "006.jpg": 672461, "007.jpg": 586222, "008.jpg": 726044, "009.jpg": 786976, "010.jpg": 603915, "011.jpg": 695529, "012.jpg": 685418, "013.jpg": 675100, "014.jpg ...
创建时间: 2018-12-10 17:29:56 大小:154.75 MB 文件数量:236 热度:9 最近下载:2025-07-29 22:22:02
    ... Mature.flac": 43436079, "(09) Kino Oko - Remedy Express.flac": ... 50843977, "(10) Kino Oko - Messiah Formula.flac": ... 64820155, "(02) Kino Oko - Made In Satisfaction. ... Window.flac": 53539537, "Kino Oko - Alphabetically Divided Highway ...
创建时间: 2018-12-11 11:06:54 大小:522 MB 文件数量:13 热度:11 最近下载:2025-08-17 03:46:01
    {"Rus.idx": 40539, "Rus.sub": 3784704, "Film_Noir.P.En.G.2007.DVDRip.avi": 2196485968}
创建时间: 2018-12-11 11:54:29 大小:2.05 GB 文件数量:3 热度:4 最近下载:2022-04-23 06:17:57
    {"01.jpg": 455092, "02.jpg": 417792, "03.jpg": 483097, "04.jpg": 641870, "05.jpg": 615580, "06.jpg": 618155, "07.jpg": 502170, "08.jpg": 560849, "09.jpg": 616348, "10.jpg": 577192, "11.jpg": 600260, "12.jpg": 588441, "13.jpg": 582172, "14.jpg": 576920, "15 ...
创建时间: 2018-12-11 18:12:49 大小:9.98 MB 文件数量:20 热度:20 最近下载:2025-08-22 05:48:02
    {"V.Cosma - Le Jouet - Игрушка.mp3": 5083472, "V.Cosma - L'Animal - Чудовище.mp3": 6456468, "V.Cosma - Les Comperes - Папаши.mp3": 8743749, "V.Cosma - Jeanne et Lucas - Беглецы.mp3": 4735521, "G.Delerue - Antoine et Ursula - Разиня.mp3": 6716647, "P.Sarde ...
创建时间: 2018-12-12 00:06:08 大小:139.58 MB 文件数量:25 热度:7 最近下载:2023-02-26 09:00:09
    {"More Hentai Torrents.txt": 20, "(成年コミック) [鬼ノ仁] きみのなか [DL版].zip": 289593249, "Download Torrents , H-Manga Doujin , Hentai Anime , Hentai Game.url": 202}
创建时间: 2018-12-12 07:44:04 大小:276.18 MB 文件数量:3 热度:12 最近下载:2025-04-12 15:07:01
    {"Simpsony.v.Kino.2007.x264.BDRip(AVC)-Kinozal.TV-AVC.mkv": 1625476325, "Simpsony.v.Kino.2007.x264.BDRip(AVC)-Kinozal.TV-AVC-Ukrainskij.ac3": 249888768}
创建时间: 2018-12-12 22:59:22 大小:1.75 GB 文件数量:2 热度:5 最近下载:2022-04-23 05:44:13
    ... 01][RG VGW].mp4": 119313121, "Kino no Tabi - The Beautiful World ... 02][RG VGW].mp4": 119780121, "Kino no Tabi - The Beautiful World ... 03][RG VGW].mp4": 120183466, "Kino no Tabi - The Beautiful World ... 04][RG VGW].mp4": 119155321, "Kino no Tabi - The Beautiful World ...
创建时间: 2018-12-13 02:22:31 大小:1.51 GB 文件数量:28 热度:6 最近下载:2022-04-23 06:41:20